createdAt,value
2023-08-15T00:01:20.151Z,83.40
2023-08-15T00:03:52.055Z,83.30
2023-08-15T00:06:22.725Z,83.35
2023-08-15T00:08:55.484Z,83.25
2023-08-15T00:11:26.711Z,83.89
2023-08-15T00:13:58.033Z,84.04
2023-08-15T00:16:31.463Z,84.32
2023-08-15T00:19:12.216Z,84.33
2023-08-15T00:21:42.920Z,84.69
2023-08-15T00:24:13.990Z,85.02
2023-08-15T00:26:44.611Z,85.17
2023-08-15T00:29:15.175Z,84.71
2023-08-15T00:31:48.326Z,84.69
2023-08-15T00:34:18.934Z,85.33
2023-08-15T00:36:49.616Z,86.27
2023-08-15T00:39:20.172Z,87.19
2023-08-15T00:41:50.545Z,88.06
2023-08-15T00:44:21.229Z,88.33
2023-08-15T00:46:54.537Z,88.90
2023-08-15T00:49:25.780Z,89.37
2023-08-15T00:51:57.546Z,90.02
2023-08-15T00:54:29.950Z,90.43
2023-08-15T00:57:01.512Z,90.58
2023-08-15T00:59:33.461Z,91.26
2023-08-15T01:02:09.025Z,91.50
2023-08-15T01:04:42.152Z,91.61
2023-08-15T01:07:14.500Z,92.34
2023-08-15T01:09:48.116Z,92.48
2023-08-15T01:12:29.308Z,92.65
2023-08-15T01:15:05.452Z,92.58
2023-08-15T01:17:47.269Z,93.22
2023-08-15T01:20:24.990Z,93.40
2023-08-15T01:22:57.716Z,93.34
2023-08-15T01:25:31.102Z,93.00
2023-08-15T01:28:02.940Z,92.83
2023-08-15T01:30:33.923Z,92.67
2023-08-15T01:33:13.823Z,92.18
2023-08-15T01:35:50.957Z,91.91
2023-08-15T01:38:35.785Z,91.73
2023-08-15T01:41:11.930Z,92.30
2023-08-15T01:43:44.165Z,92.16
2023-08-15T01:46:15.982Z,92.54
2023-08-15T01:48:47.428Z,94.02
2023-08-15T01:51:18.209Z,94.47
2023-08-15T01:53:49.135Z,94.34
2023-08-15T01:56:22.551Z,93.73
2023-08-15T01:58:53.287Z,94.55
2023-08-15T02:01:24.038Z,95.17
2023-08-15T02:03:54.692Z,95.24
2023-08-15T02:06:25.501Z,95.09
2023-08-15T02:08:56.112Z,95.59
2023-08-15T02:11:30.263Z,95.95
2023-08-15T02:14:02.220Z,96.09
2023-08-15T02:16:32.835Z,95.45
2023-08-15T02:19:04.014Z,96.15
2023-08-15T02:21:34.728Z,95.94
2023-08-15T02:24:05.836Z,96.55
2023-08-15T02:26:39.080Z,96.88
2023-08-15T02:29:09.652Z,96.99
2023-08-15T02:31:46.730Z,96.46
2023-08-15T02:34:17.310Z,96.14
2023-08-15T02:36:51.369Z,96.25
2023-08-15T02:39:23.219Z,95.55
2023-08-15T02:41:56.633Z,95.58
2023-08-15T02:44:27.350Z,94.96
2023-08-15T02:46:58.167Z,95.14
2023-08-15T02:49:29.199Z,94.67
2023-08-15T02:52:00.762Z,94.53
2023-08-15T02:54:31.408Z,94.29
2023-08-15T02:57:04.726Z,94.32
2023-08-15T02:59:35.300Z,94.00
2023-08-15T03:02:06.040Z,94.06
2023-08-15T03:04:36.711Z,94.74
2023-08-15T03:07:07.422Z,95.25
2023-08-15T03:09:38.028Z,95.47
2023-08-15T03:12:12.085Z,94.89
2023-08-15T03:14:42.735Z,95.67
2023-08-15T03:17:15.272Z,96.03
2023-08-15T03:19:46.040Z,96.15
2023-08-15T03:22:17.141Z,96.48
2023-08-15T03:24:48.379Z,96.85
2023-08-15T03:27:21.977Z,96.41
2023-08-15T03:29:52.642Z,96.96
2023-08-15T03:32:23.338Z,97.13
2023-08-15T03:34:54.010Z,97.51
2023-08-15T03:37:24.428Z,97.86
2023-08-15T03:39:55.531Z,98.06
2023-08-15T03:42:28.854Z,97.45
2023-08-15T03:44:59.480Z,97.12
2023-08-15T03:47:30.296Z,96.86
2023-08-15T03:50:01.216Z,96.63
2023-08-15T03:52:34.211Z,96.18
2023-08-15T03:55:05.006Z,96.57
2023-08-15T03:57:39.474Z,96.75
2023-08-15T04:00:14.682Z,96.50
2023-08-15T04:02:45.226Z,96.79
2023-08-15T04:05:17.223Z,96.63
2023-08-15T04:07:48.114Z,96.77
2023-08-15T04:10:18.802Z,96.45
2023-08-15T04:12:54.338Z,97.01
2023-08-15T04:15:25.050Z,97.37
2023-08-15T04:17:57.081Z,97.56
2023-08-15T04:20:27.756Z,97.25
2023-08-15T04:22:58.046Z,96.57
2023-08-15T04:25:31.875Z,96.63
2023-08-15T04:28:05.613Z,96.42
2023-08-15T04:30:38.147Z,95.33
2023-08-15T04:33:09.411Z,94.63
2023-08-15T04:35:41.082Z,93.98
2023-08-15T04:38:13.999Z,92.63
2023-08-15T04:40:45.287Z,92.13
2023-08-15T04:43:19.374Z,90.52
2023-08-15T04:45:50.273Z,89.55
2023-08-15T04:48:20.856Z,88.97
2023-08-15T04:50:51.093Z,87.95
2023-08-15T04:53:21.732Z,87.74
2023-08-15T04:55:52.351Z,87.16
2023-08-15T04:58:25.241Z,88.27
2023-08-15T05:00:55.888Z,88.63
2023-08-15T05:03:26.630Z,87.90
2023-08-15T05:05:57.246Z,87.28
2023-08-15T05:08:28.090Z,86.28
2023-08-15T05:10:58.787Z,85.01
2023-08-15T05:13:31.981Z,85.33
2023-08-15T05:16:02.664Z,85.07
2023-08-15T05:18:33.673Z,84.73
2023-08-15T05:21:04.297Z,84.01
2023-08-15T05:23:35.710Z,83.70
2023-08-15T05:26:07.593Z,83.61
2023-08-15T05:28:40.806Z,82.62
2023-08-15T05:31:11.383Z,82.03
2023-08-15T05:33:42.232Z,81.63
2023-08-15T05:36:13.075Z,80.95
2023-08-15T05:38:43.824Z,80.56
2023-08-15T05:41:14.689Z,79.95
2023-08-15T05:43:48.541Z,79.74
2023-08-15T05:46:19.710Z,79.16
2023-08-15T05:48:50.871Z,78.90
2023-08-15T05:51:21.999Z,78.32
2023-08-15T05:53:52.795Z,77.81
2023-08-15T05:56:23.531Z,77.73
2023-08-15T05:58:56.945Z,76.92
2023-08-15T06:01:27.939Z,76.39
2023-08-15T06:03:59.550Z,75.51
2023-08-15T06:06:30.353Z,74.64
2023-08-15T06:09:01.504Z,74.31
2023-08-15T06:11:32.405Z,73.74
2023-08-15T06:14:06.664Z,72.58
2023-08-15T06:16:37.426Z,71.37
2023-08-15T06:19:09.060Z,71.91
2023-08-15T06:21:43.125Z,71.99
2023-08-15T06:24:16.781Z,71.08
2023-08-15T06:26:47.904Z,70.90
2023-08-15T06:29:21.552Z,70.48
2023-08-15T06:31:52.405Z,68.98
2023-08-15T06:34:23.489Z,68.26
2023-08-15T06:36:54.778Z,68.17
2023-08-15T06:39:25.789Z,67.42
2023-08-15T06:41:56.919Z,66.97
2023-08-15T06:44:30.081Z,65.81
2023-08-15T06:47:00.666Z,65.19
2023-08-15T06:49:31.215Z,64.59
2023-08-15T06:52:01.760Z,63.74
2023-08-15T06:54:32.420Z,62.55
2023-08-15T06:57:03.717Z,62.51
2023-08-15T06:59:37.122Z,62.63
2023-08-15T07:02:12.006Z,63.06
2023-08-15T07:04:43.126Z,62.27
2023-08-15T07:07:13.658Z,61.52
2023-08-15T07:09:45.391Z,60.14
2023-08-15T07:12:19.770Z,61.18
2023-08-15T07:14:53.597Z,61.08
2023-08-15T07:17:24.264Z,60.92
2023-08-15T07:19:54.859Z,60.54
2023-08-15T07:22:25.414Z,59.46
2023-08-15T07:24:56.180Z,59.06
2023-08-15T07:27:26.786Z,59.02
2023-08-15T07:30:00.267Z,57.88
2023-08-15T07:32:32.390Z,57.16
2023-08-15T07:35:02.871Z,56.62
2023-08-15T07:37:34.016Z,54.54
2023-08-15T07:40:09.426Z,52.56
2023-08-15T07:42:40.533Z,52.53
2023-08-15T07:45:14.459Z,52.11
2023-08-15T07:47:46.404Z,52.01
2023-08-15T07:50:19.602Z,50.96
2023-08-15T07:52:50.348Z,50.17
2023-08-15T07:55:21.220Z,49.94
2023-08-15T07:57:51.966Z,50.38
2023-08-15T08:00:25.242Z,50.15
2023-08-15T08:02:56.294Z,50.47
2023-08-15T08:05:26.864Z,50.72
2023-08-15T08:07:57.402Z,50.66
2023-08-15T08:10:28.203Z,50.50
2023-08-15T08:13:00.989Z,51.28
2023-08-15T08:15:34.509Z,49.22
2023-08-15T08:18:05.307Z,48.79
2023-08-15T08:20:36.071Z,47.41
2023-08-15T08:23:06.776Z,45.22
2023-08-15T08:25:37.410Z,44.29
2023-08-15T08:28:09.165Z,42.65
2023-08-15T08:30:42.333Z,40.11
2023-08-15T08:33:14.401Z,38.89
2023-08-15T08:35:45.126Z,36.16
2023-08-15T08:38:15.745Z,35.28
2023-08-15T08:40:46.718Z,35.27
2023-08-15T08:43:19.526Z,32.79
2023-08-15T08:45:53.388Z,32.47
2023-08-15T08:48:26.018Z,34.09
2023-08-15T08:50:58.991Z,31.57
2023-08-15T08:53:29.730Z,33.79
2023-08-15T08:56:00.945Z,34.94
2023-08-15T08:58:34.272Z,33.86
2023-08-15T09:01:07.596Z,31.38
2023-08-15T09:03:38.789Z,30.88
2023-08-15T09:06:09.905Z,30.53
2023-08-15T09:08:40.479Z,30.39
2023-08-15T09:11:11.395Z,30.63
2023-08-15T09:13:51.080Z,30.76
2023-08-15T09:16:24.335Z,30.54
2023-08-15T09:18:54.901Z,30.08
2023-08-15T09:21:25.461Z,30.58
2023-08-15T09:23:56.863Z,29.38
2023-08-15T09:26:28.824Z,27.87
2023-08-15T09:29:01.876Z,29.01
2023-08-15T09:31:36.001Z,28.67
2023-08-15T09:34:13.903Z,29.06
2023-08-15T09:36:45.475Z,28.25
2023-08-15T09:39:19.404Z,28.25
2023-08-15T09:41:50.987Z,28.79
2023-08-15T09:44:35.895Z,28.64
2023-08-15T09:47:10.982Z,28.42
2023-08-15T09:49:42.754Z,28.08
2023-08-15T09:52:15.138Z,27.88
2023-08-15T09:54:47.981Z,28.27
2023-08-15T09:57:19.099Z,28.66
2023-08-15T09:59:49.908Z,27.63
2023-08-15T10:02:27.777Z,28.02
2023-08-15T10:05:07.751Z,27.82
2023-08-15T10:07:39.645Z,29.16
2023-08-15T10:10:13.407Z,27.91
2023-08-15T10:12:46.188Z,28.20
2023-08-15T10:15:17.448Z,28.43
2023-08-15T10:17:51.079Z,28.57
2023-08-15T10:20:23.880Z,28.89
2023-08-15T10:22:57.428Z,29.53
2023-08-15T10:25:39.736Z,31.19
2023-08-15T10:28:14.090Z,33.33
2023-08-15T10:30:52.187Z,33.95
2023-08-15T10:33:28.521Z,34.52
2023-08-15T10:36:11.999Z,33.06
2023-08-15T10:38:45.471Z,31.90
2023-08-15T10:41:19.076Z,32.38
2023-08-15T10:43:52.268Z,34.49
2023-08-15T10:46:29.730Z,35.31
2023-08-15T10:49:05.045Z,34.96
2023-08-15T10:51:38.006Z,35.36
2023-08-15T10:54:12.097Z,35.83
2023-08-15T10:56:44.861Z,34.95
2023-08-15T10:59:17.526Z,34.82
2023-08-15T11:01:50.686Z,31.36
2023-08-15T11:04:28.727Z,30.37
2023-08-15T11:06:59.281Z,30.87
2023-08-15T11:09:32.986Z,30.69
2023-08-15T11:12:10.202Z,32.11
2023-08-15T11:14:40.840Z,33.07
2023-08-15T11:17:14.696Z,34.30
2023-08-15T11:19:48.819Z,35.33
2023-08-15T11:22:20.968Z,36.03
2023-08-15T11:24:54.622Z,37.54
2023-08-15T11:27:25.221Z,38.27
2023-08-15T11:30:01.094Z,39.42
2023-08-15T11:32:32.010Z,41.22
2023-08-15T11:35:07.086Z,41.57
2023-08-15T11:37:38.906Z,42.68
2023-08-15T11:40:11.574Z,43.58
2023-08-15T11:42:42.581Z,45.30
2023-08-15T11:45:21.858Z,46.47
2023-08-15T11:48:04.668Z,46.95
2023-08-15T11:50:44.656Z,46.84
2023-08-15T11:53:19.656Z,48.11
2023-08-15T11:55:51.883Z,46.73
2023-08-15T11:58:27.802Z,46.17
2023-08-15T12:01:00.244Z,45.72
2023-08-15T12:03:31.390Z,44.78
2023-08-15T12:06:06.535Z,44.51
2023-08-15T12:08:37.431Z,45.20
2023-08-15T12:11:11.813Z,43.77
2023-08-15T12:13:43.842Z,43.74
2023-08-15T12:16:14.666Z,44.43
2023-08-15T12:18:45.242Z,45.67
2023-08-15T12:21:18.423Z,46.73
2023-08-15T12:23:49.089Z,48.04
2023-08-15T12:26:19.690Z,49.26
2023-08-15T12:28:50.217Z,48.20
2023-08-15T12:31:21.353Z,48.39
2023-08-15T12:33:52.053Z,49.63
2023-08-15T12:36:25.229Z,48.20
2023-08-15T12:38:55.904Z,45.89
2023-08-15T12:41:26.493Z,46.00
2023-08-15T12:43:57.247Z,45.73
2023-08-15T12:46:28.351Z,41.94
2023-08-15T12:49:03.497Z,40.87
2023-08-15T12:51:37.053Z,40.27
2023-08-15T12:54:08.355Z,40.71
2023-08-15T12:56:38.912Z,40.98
2023-08-15T12:59:09.708Z,42.30
2023-08-15T13:01:41.298Z,40.83
2023-08-15T13:04:14.088Z,36.49
2023-08-15T13:06:47.568Z,35.61
2023-08-15T13:09:18.475Z,34.75
2023-08-15T13:11:49.133Z,33.60
2023-08-15T13:14:22.691Z,32.56
2023-08-15T13:16:58.695Z,31.33
2023-08-15T13:19:29.225Z,30.53
2023-08-15T13:22:02.543Z,29.59
2023-08-15T13:24:33.154Z,28.59
2023-08-15T13:27:03.686Z,29.27
2023-08-15T13:29:34.518Z,28.09
2023-08-15T13:32:05.264Z,27.68
2023-08-15T13:34:35.958Z,29.36
2023-08-15T13:37:09.180Z,31.01
2023-08-15T13:39:39.742Z,33.30
2023-08-15T13:42:16.971Z,34.58
2023-08-15T13:44:54.074Z,36.79
2023-08-15T13:47:24.951Z,38.13
2023-08-15T13:49:55.669Z,38.93
2023-08-15T13:52:31.639Z,40.55
2023-08-15T13:55:02.181Z,42.53
2023-08-15T13:57:34.019Z,43.30
2023-08-15T14:00:05.473Z,44.38
2023-08-15T14:02:37.198Z,45.46
2023-08-15T14:05:09.188Z,46.35
2023-08-15T14:07:42.439Z,47.79
2023-08-15T14:10:14.820Z,49.04
2023-08-15T14:12:45.351Z,49.33
2023-08-15T14:15:16.261Z,49.75
2023-08-15T14:17:46.797Z,50.12
2023-08-15T14:20:17.422Z,51.29
2023-08-15T14:22:50.685Z,52.38
2023-08-15T14:25:21.467Z,53.17
2023-08-15T14:27:52.049Z,53.99
2023-08-15T14:30:22.835Z,55.00
2023-08-15T14:32:53.659Z,54.31
2023-08-15T14:35:25.802Z,54.78
2023-08-15T14:37:58.924Z,56.84
2023-08-15T14:40:29.507Z,57.60
2023-08-15T14:43:00.042Z,58.32
2023-08-15T14:45:30.629Z,59.21
2023-08-15T14:48:03.304Z,57.59
2023-08-15T14:50:36.149Z,57.45
2023-08-15T14:53:09.462Z,57.09
2023-08-15T14:55:40.047Z,57.30
2023-08-15T14:58:11.125Z,57.87
2023-08-15T15:00:41.752Z,60.41
2023-08-15T15:03:12.798Z,65.98
2023-08-15T15:05:43.459Z,73.30
2023-08-15T15:08:16.709Z,78.33
2023-08-15T15:10:47.273Z,82.64
2023-08-15T15:13:17.817Z,84.08
2023-08-15T15:15:54.251Z,88.37
2023-08-15T15:18:25.792Z,91.02
2023-08-15T15:20:57.876Z,89.47
2023-08-15T15:23:32.445Z,89.17
2023-08-15T15:26:03.007Z,90.95
2023-08-15T15:28:33.651Z,90.71
2023-08-15T15:31:04.275Z,91.48
2023-08-15T15:33:34.784Z,91.73
2023-08-15T15:36:05.332Z,90.63
2023-08-15T15:38:38.561Z,90.13
2023-08-15T15:41:09.189Z,90.88
2023-08-15T15:43:39.769Z,89.31
2023-08-15T15:46:10.507Z,87.39
2023-08-15T15:48:41.245Z,84.99
2023-08-15T15:51:12.131Z,84.88
2023-08-15T15:53:45.343Z,84.69
2023-08-15T15:56:15.902Z,85.00
2023-08-15T15:58:46.497Z,87.33
2023-08-15T16:01:17.206Z,88.16
2023-08-15T16:03:48.168Z,87.24
2023-08-15T16:06:21.800Z,88.73
2023-08-15T16:08:55.053Z,93.33
2023-08-15T16:11:25.752Z,96.45
2023-08-15T16:13:56.631Z,98.09
2023-08-15T16:16:27.304Z,96.78
2023-08-15T16:18:58.628Z,95.29
2023-08-15T16:21:29.953Z,93.70
2023-08-15T16:24:03.191Z,94.82
2023-08-15T16:26:34.593Z,96.43
2023-08-15T16:29:07.065Z,96.42
2023-08-15T16:31:37.745Z,94.39
2023-08-15T16:34:09.457Z,93.72
2023-08-15T16:36:40.074Z,93.53
2023-08-15T16:39:13.243Z,93.32
2023-08-15T16:41:44.253Z,94.05
2023-08-15T16:44:14.824Z,93.86
2023-08-15T16:46:45.466Z,94.62
2023-08-15T16:49:16.133Z,92.53
2023-08-15T16:51:46.717Z,95.84
2023-08-15T16:54:23.023Z,96.02
2023-08-15T16:56:54.014Z,95.05
2023-08-15T16:59:24.610Z,93.72
2023-08-15T17:01:55.205Z,95.93
2023-08-15T17:04:25.777Z,94.59
2023-08-15T17:06:56.553Z,95.67
2023-08-15T17:09:31.225Z,98.73
2023-08-15T17:12:02.008Z,97.93
2023-08-15T17:14:32.990Z,98.03
2023-08-15T17:17:03.859Z,96.36
2023-08-15T17:19:34.606Z,96.65
2023-08-15T17:22:05.168Z,96.68
2023-08-15T17:24:38.546Z,94.56
2023-08-15T17:27:09.353Z,95.53
2023-08-15T17:29:40.009Z,96.02
2023-08-15T17:32:10.956Z,94.66
2023-08-15T17:34:41.587Z,94.57
2023-08-15T17:37:12.480Z,95.60
2023-08-15T17:39:45.839Z,96.54
2023-08-15T17:42:16.697Z,96.52
2023-08-15T17:44:47.891Z,94.15
2023-08-15T17:47:18.392Z,94.48
2023-08-15T17:49:48.935Z,92.15
2023-08-15T17:52:19.692Z,93.29
2023-08-15T17:54:53.130Z,92.41
2023-08-15T17:57:23.808Z,90.69
2023-08-15T17:59:54.458Z,88.63
2023-08-15T18:02:25.720Z,89.12
2023-08-15T18:04:56.646Z,87.31
2023-08-15T18:07:27.530Z,88.92
2023-08-15T18:10:01.206Z,89.31
2023-08-15T18:12:31.957Z,87.88
2023-08-15T18:15:02.559Z,87.78
2023-08-15T18:17:33.206Z,87.41
2023-08-15T18:20:03.971Z,87.86
2023-08-15T18:22:34.545Z,88.38
2023-08-15T18:25:08.794Z,89.11
2023-08-15T18:27:39.416Z,89.52
2023-08-15T18:30:12.262Z,89.79
2023-08-15T18:32:43.215Z,90.17
2023-08-15T18:35:14.012Z,88.80
2023-08-15T18:37:46.553Z,89.50
2023-08-15T18:40:21.167Z,88.46
2023-08-15T18:42:51.689Z,87.21
2023-08-15T18:45:22.484Z,87.18
2023-08-15T18:47:53.221Z,87.27
2023-08-15T18:50:24.128Z,88.59
2023-08-15T18:52:55.254Z,90.57
2023-08-15T18:55:28.523Z,90.39
2023-08-15T18:57:59.178Z,92.49
2023-08-15T19:00:29.855Z,92.30
2023-08-15T19:03:00.491Z,92.52
2023-08-15T19:05:31.399Z,92.92
2023-08-15T19:08:02.745Z,91.01
2023-08-15T19:10:36.162Z,90.84
2023-08-15T19:13:06.840Z,89.51
2023-08-15T19:15:37.634Z,88.87
2023-08-15T19:18:09.446Z,88.33
2023-08-15T19:20:40.795Z,88.27
2023-08-15T19:23:11.288Z,89.78
2023-08-15T19:25:44.481Z,91.61
2023-08-15T19:28:16.698Z,91.38
2023-08-15T19:30:47.363Z,89.94
2023-08-15T19:33:20.903Z,89.66
2023-08-15T19:35:51.531Z,90.34
2023-08-15T19:38:22.177Z,89.59
2023-08-15T19:40:55.453Z,89.19
2023-08-15T19:43:26.165Z,89.02
2023-08-15T19:45:56.865Z,91.15
2023-08-15T19:48:28.328Z,93.03
2023-08-15T19:50:58.890Z,93.31
2023-08-15T19:53:29.422Z,92.88
2023-08-15T19:56:02.411Z,91.86
2023-08-15T19:58:33.071Z,91.03
2023-08-15T20:01:03.696Z,89.90
2023-08-15T20:03:34.298Z,90.34
2023-08-15T20:06:04.805Z,90.48
2023-08-15T20:08:35.067Z,90.81
2023-08-15T20:11:08.315Z,91.48
2023-08-15T20:13:38.848Z,90.74
2023-08-15T20:16:09.442Z,88.31
2023-08-15T20:18:40.054Z,88.84
2023-08-15T20:21:10.628Z,89.97
2023-08-15T20:23:41.166Z,90.88
2023-08-15T20:26:14.394Z,89.61
2023-08-15T20:28:44.919Z,89.52
2023-08-15T20:31:15.694Z,92.06
2023-08-15T20:33:46.335Z,93.28
2023-08-15T20:36:16.780Z,93.30
2023-08-15T20:38:47.315Z,94.09
2023-08-15T20:41:20.434Z,94.65
2023-08-15T20:43:51.161Z,96.21
2023-08-15T20:46:21.788Z,97.22
2023-08-15T20:48:52.371Z,95.62
2023-08-15T20:51:22.865Z,96.00
2023-08-15T20:53:53.112Z,94.87
2023-08-15T20:56:27.549Z,95.39
2023-08-15T20:58:58.578Z,95.27
2023-08-15T21:01:29.289Z,96.67
2023-08-15T21:03:59.921Z,96.33
2023-08-15T21:06:30.635Z,96.76
2023-08-15T21:09:01.177Z,96.68
2023-08-15T21:11:34.401Z,97.01
2023-08-15T21:14:04.924Z,97.11
2023-08-15T21:16:35.216Z,96.11
2023-08-15T21:19:05.789Z,96.96
2023-08-15T21:21:36.315Z,95.61
2023-08-15T21:24:07.897Z,97.50
2023-08-15T21:26:41.176Z,96.49
2023-08-15T21:29:12.217Z,94.74
2023-08-15T21:31:44.837Z,93.44
2023-08-15T21:34:15.505Z,94.41
2023-08-15T21:36:46.097Z,94.79
2023-08-15T21:39:16.783Z,95.06
2023-08-15T21:41:49.945Z,96.40
2023-08-15T21:44:20.659Z,95.22
2023-08-15T21:46:51.356Z,94.92
2023-08-15T21:49:21.978Z,94.45
2023-08-15T21:51:52.581Z,95.21
2023-08-15T21:54:23.156Z,95.51
2023-08-15T21:56:56.564Z,95.46
2023-08-15T21:59:27.179Z,95.82
2023-08-15T22:01:57.777Z,97.55
2023-08-15T22:04:28.316Z,98.42
2023-08-15T22:06:58.843Z,98.51
2023-08-15T22:09:29.019Z,100.00
2023-08-15T22:12:02.245Z,99.80
2023-08-15T22:14:32.782Z,100.00
2023-08-15T22:17:03.030Z,100.00
2023-08-15T22:19:33.649Z,100.00
2023-08-15T22:22:04.870Z,100.00
2023-08-15T22:24:35.414Z,100.00
2023-08-15T22:27:08.259Z,100.00
2023-08-15T22:29:38.903Z,100.00
2023-08-15T22:32:09.881Z,100.00
2023-08-15T22:34:40.618Z,100.00
2023-08-15T22:37:10.828Z,100.00
2023-08-15T22:39:41.423Z,100.00
2023-08-15T22:42:14.539Z,100.00
2023-08-15T22:44:45.149Z,100.00
2023-08-15T22:47:15.694Z,100.00
2023-08-15T22:49:45.896Z,100.00
2023-08-15T22:52:16.475Z,100.00
2023-08-15T22:54:46.999Z,100.00
2023-08-15T22:57:19.817Z,100.00
2023-08-15T22:59:50.513Z,100.00
2023-08-15T23:02:21.026Z,100.00
2023-08-15T23:04:54.341Z,100.00
2023-08-15T23:07:25.232Z,100.00
2023-08-15T23:09:56.123Z,100.00
2023-08-15T23:12:29.296Z,100.00
2023-08-15T23:15:00.147Z,100.00
2023-08-15T23:17:30.716Z,100.00
2023-08-15T23:20:01.334Z,100.00
2023-08-15T23:22:32.080Z,100.00
2023-08-15T23:25:04.076Z,100.00
2023-08-15T23:27:37.350Z,100.00
2023-08-15T23:30:09.951Z,100.00
2023-08-15T23:32:40.455Z,100.00
2023-08-15T23:35:14.478Z,100.00
2023-08-15T23:37:46.611Z,100.00
2023-08-15T23:40:17.476Z,100.00
2023-08-15T23:42:50.743Z,100.00
2023-08-15T23:45:21.437Z,100.00
2023-08-15T23:47:52.120Z,100.00
2023-08-15T23:50:22.983Z,100.00
2023-08-15T23:52:53.501Z,100.00
2023-08-15T23:55:23.688Z,100.00
2023-08-15T23:57:57.025Z,100.00
